aviador You're here:

EGUN Decoded Metar

MILDENHALL in ENGLAND
Report Time2017-09-24 23:00:00
UTC Time2017-09-24 23:09:11
Flight Rules vfr VFR
Wind100° at 03 kt
W.Decomp.*RWY 11: 3.0 kt HW 0.5 kt LCW
W.Rank100° ranks 30
Current wind is below 100° avg. (6.9)
Visibility9999 m
Phenomena:N/A
Clouds:Scattered 100 Hf
CeilingNone
Temp15°C (ISA 0)
Dew Point15°C (100% RH)
QNH1019 hPa
Density Alt66 ft
Elevation33 ft
Report Wrong Elevation
Raw Report
SPECI EGUN 242300Z AUTO 10003KT 9999 SCT100 15/15 A3010 RMK AO2 RAE00
SLP196 $=

Extra information for EGUN:More info

Metar Taf Metar & Taf Last 4 Metars F.Rules Stats Wind Profile Meteogram Temp Stats Airport Information Weather charts Add Link Nearby VenuesMetar ALERT Operation Metar Decoded Social comments